createdAt,value
2018-08-20T00:01:29.272Z,9.00
2018-08-20T00:04:01.252Z,8.77
2018-08-20T00:07:01.557Z,8.50
2018-08-20T00:09:36.598Z,8.77
2018-08-20T00:12:07.206Z,9.10
2018-08-20T00:14:35.842Z,8.60
2018-08-20T00:17:04.463Z,8.83
2018-08-20T00:19:33.041Z,8.70
2018-08-20T00:22:01.572Z,9.07
2018-08-20T00:24:30.170Z,9.20
2018-08-20T00:27:00.153Z,8.93
2018-08-20T00:29:28.945Z,9.27
2018-08-20T00:31:57.504Z,9.07
2018-08-20T00:34:26.089Z,9.47
2018-08-20T00:36:54.610Z,9.60
2018-08-20T00:39:23.185Z,9.43
2018-08-20T00:41:51.708Z,9.20
2018-08-20T00:44:20.265Z,9.17
2018-08-20T00:46:48.831Z,8.97
2018-08-20T00:49:17.501Z,9.37
2018-08-20T00:51:46.618Z,9.00
2018-08-20T00:54:15.168Z,8.30
2018-08-20T00:56:43.725Z,9.40
2018-08-20T00:59:12.672Z,9.10
2018-08-20T01:01:41.234Z,8.97
2018-08-20T01:04:09.820Z,8.97
2018-08-20T01:06:38.386Z,8.97
2018-08-20T01:09:08.031Z,9.60
2018-08-20T01:11:37.102Z,8.90
2018-08-20T01:14:05.731Z,9.53
2018-08-20T01:16:39.420Z,9.50
2018-08-20T01:19:07.962Z,9.17
2018-08-20T01:21:36.479Z,9.60
2018-08-20T01:24:05.058Z,9.20
2018-08-20T01:26:33.614Z,9.60
2018-08-20T01:29:02.180Z,9.50
2018-08-20T01:31:30.694Z,9.17
2018-08-20T01:33:59.243Z,9.40
2018-08-20T01:36:27.771Z,9.50
2018-08-20T01:38:56.258Z,9.33
2018-08-20T01:41:24.829Z,8.90
2018-08-20T01:43:53.400Z,8.93
2018-08-20T01:46:21.940Z,9.10
2018-08-20T01:48:50.511Z,9.73
2018-08-20T01:51:19.142Z,9.70
2018-08-20T01:53:47.677Z,10.10
2018-08-20T01:56:16.247Z,9.73
2018-08-20T01:58:44.799Z,10.10
2018-08-20T02:01:13.570Z,10.20
2018-08-20T02:03:42.188Z,10.07
2018-08-20T02:06:10.717Z,11.37
2018-08-20T02:08:39.342Z,10.60
2018-08-20T02:11:07.930Z,10.83
2018-08-20T02:13:36.509Z,10.53
2018-08-20T02:16:05.129Z,10.63
2018-08-20T02:18:33.743Z,10.23
2018-08-20T02:22:26.712Z,11.00
2018-08-20T02:24:55.476Z,11.13
2018-08-20T02:27:24.372Z,10.80
2018-08-20T02:29:52.953Z,11.57
2018-08-20T02:32:21.538Z,11.63
2018-08-20T02:34:50.286Z,11.47
2018-08-20T02:37:18.799Z,11.53
2018-08-20T02:39:47.409Z,11.37
2018-08-20T02:42:15.977Z,11.33
2018-08-20T02:44:44.538Z,11.60
2018-08-20T02:47:13.082Z,11.47
2018-08-20T02:49:41.651Z,13.20
2018-08-20T02:52:10.520Z,11.53
2018-08-20T02:54:39.085Z,11.83
2018-08-20T02:57:07.600Z,11.00
2018-08-20T02:59:36.201Z,10.83
2018-08-20T03:02:04.846Z,10.70
2018-08-20T03:04:33.438Z,10.73
2018-08-20T03:07:02.278Z,10.67
2018-08-20T03:09:30.874Z,10.90
2018-08-20T03:11:59.426Z,11.50
2018-08-20T03:14:27.989Z,11.60
2018-08-20T03:16:56.546Z,11.73
2018-08-20T03:19:25.074Z,11.57
2018-08-20T03:21:53.582Z,12.03
2018-08-20T03:24:22.168Z,12.47
2018-08-20T03:26:50.907Z,12.33
2018-08-20T03:29:19.470Z,12.53
2018-08-20T03:31:48.022Z,12.60
2018-08-20T03:34:16.558Z,12.13
2018-08-20T03:36:45.126Z,12.33
2018-08-20T03:39:13.675Z,12.20
2018-08-20T03:41:42.206Z,12.07
2018-08-20T03:44:10.722Z,11.37
2018-08-20T03:46:39.284Z,11.90
2018-08-20T03:49:07.970Z,11.97
2018-08-20T03:51:36.546Z,11.73
2018-08-20T03:54:05.290Z,11.70
2018-08-20T03:56:33.882Z,12.07
2018-08-20T03:59:02.418Z,12.17
2018-08-20T04:01:30.949Z,11.50
2018-08-20T04:03:59.495Z,11.90
2018-08-20T04:06:28.101Z,11.63
2018-08-20T04:08:56.587Z,11.83
2018-08-20T04:11:25.134Z,12.70
2018-08-20T04:13:53.653Z,12.63
2018-08-20T04:16:22.187Z,12.80
2018-08-20T04:18:54.858Z,13.00
2018-08-20T04:21:23.419Z,12.80
2018-08-20T04:23:51.963Z,12.90
2018-08-20T04:26:20.507Z,13.00
2018-08-20T04:28:49.086Z,13.27
2018-08-20T04:31:17.626Z,13.27
2018-08-20T04:33:46.155Z,11.90
2018-08-20T04:36:14.653Z,11.73
2018-08-20T04:38:43.408Z,12.07
2018-08-20T04:41:12.017Z,11.93
2018-08-20T04:43:40.540Z,12.27
2018-08-20T04:46:09.145Z,12.83
2018-08-20T04:48:37.641Z,12.67
2018-08-20T04:51:06.388Z,11.63
2018-08-20T04:53:34.763Z,12.47
2018-08-20T04:56:03.338Z,12.53
2018-08-20T04:58:31.878Z,12.47
2018-08-20T05:01:00.441Z,11.87
2018-08-20T05:03:29.356Z,11.97
2018-08-20T05:05:57.893Z,12.43
2018-08-20T05:08:26.394Z,11.90
2018-08-20T05:10:54.955Z,11.60
2018-08-20T05:13:23.499Z,11.37
2018-08-20T05:15:52.212Z,11.47
2018-08-20T05:18:20.684Z,10.90
2018-08-20T05:20:49.225Z,11.10
2018-08-20T05:23:17.792Z,10.33
2018-08-20T05:25:46.321Z,10.70
2018-08-20T05:28:14.802Z,10.17
2018-08-20T05:30:43.361Z,9.63
2018-08-20T05:33:11.902Z,9.40
2018-08-20T05:35:40.427Z,9.63
2018-08-20T05:38:09.050Z,8.97
2018-08-20T05:40:37.529Z,9.40
2018-08-20T05:43:06.417Z,9.60
2018-08-20T05:45:34.943Z,9.70
2018-08-20T05:48:03.522Z,9.57
2018-08-20T05:50:32.114Z,9.60
2018-08-20T05:53:00.694Z,9.20
2018-08-20T05:55:29.229Z,10.07
2018-08-20T05:57:57.862Z,9.17
2018-08-20T06:00:26.437Z,8.80
2018-08-20T06:02:55.009Z,8.70
2018-08-20T06:05:23.561Z,8.20
2018-08-20T06:07:52.112Z,7.87
2018-08-20T06:10:20.643Z,7.40
2018-08-20T06:12:49.244Z,7.90
2018-08-20T06:15:17.838Z,7.63
2018-08-20T06:17:47.007Z,7.27
2018-08-20T06:20:17.225Z,7.40
2018-08-20T06:22:46.143Z,7.10
2018-08-20T06:25:15.097Z,7.80
2018-08-20T06:27:44.030Z,7.80
2018-08-20T06:30:16.716Z,7.60
2018-08-20T06:32:45.706Z,6.90
2018-08-20T06:35:14.309Z,7.67
2018-08-20T06:37:43.504Z,7.27
2018-08-20T06:40:13.819Z,7.60
2018-08-20T06:42:42.718Z,7.50
2018-08-20T06:45:14.355Z,7.17
2018-08-20T06:47:43.648Z,7.20
2018-08-20T06:50:14.298Z,7.37
2018-08-20T06:52:43.881Z,7.00
2018-08-20T06:55:13.285Z,7.30
2018-08-20T06:57:44.142Z,7.00
2018-08-20T07:00:12.834Z,6.87
2018-08-20T07:02:41.544Z,6.87
2018-08-20T07:05:10.454Z,6.73
2018-08-20T07:07:40.107Z,6.50
2018-08-20T07:10:11.330Z,6.20
2018-08-20T07:12:39.926Z,6.30
2018-08-20T07:15:09.810Z,6.10
2018-08-20T07:17:41.523Z,6.58
2018-08-20T07:20:11.755Z,5.83
2018-08-20T07:22:40.377Z,5.75
2018-08-20T07:25:09.551Z,6.53
2018-08-20T07:27:38.567Z,5.80
2018-08-20T07:30:09.923Z,5.85
2018-08-20T07:32:38.528Z,5.58
2018-08-20T07:35:07.369Z,5.47
2018-08-20T07:37:35.942Z,5.10
2018-08-20T07:40:05.921Z,5.17
2018-08-20T07:42:34.638Z,5.10
2018-08-20T07:45:03.144Z,5.40
2018-08-20T07:47:31.941Z,5.60
2018-08-20T07:50:00.599Z,5.22
2018-08-20T07:52:30.181Z,5.28
2018-08-20T07:54:59.591Z,4.92
2018-08-20T07:57:28.218Z,5.03
2018-08-20T07:59:56.763Z,5.12
2018-08-20T08:02:25.383Z,5.00
2018-08-20T08:04:53.928Z,4.60
2018-08-20T08:07:22.984Z,4.40
2018-08-20T08:09:52.432Z,4.83
2018-08-20T08:12:20.926Z,4.67
2018-08-20T08:14:49.583Z,4.90
2018-08-20T08:17:18.139Z,4.30
2018-08-20T08:19:47.956Z,4.70
2018-08-20T08:22:16.719Z,4.50
2018-08-20T08:24:45.467Z,4.50
2018-08-20T08:27:14.023Z,4.50
2018-08-20T08:29:42.790Z,4.62
2018-08-20T08:32:11.588Z,4.22
2018-08-20T08:34:40.280Z,4.70
2018-08-20T08:37:09.034Z,4.17
2018-08-20T08:39:37.723Z,4.58
2018-08-20T08:42:07.160Z,4.30
2018-08-20T08:44:36.232Z,4.10
2018-08-20T08:47:05.165Z,4.50
2018-08-20T08:49:34.699Z,4.40
2018-08-20T08:52:03.305Z,3.98
2018-08-20T08:54:31.887Z,4.17
2018-08-20T08:57:00.482Z,4.20
2018-08-20T08:59:29.261Z,4.00
2018-08-20T09:01:57.978Z,4.40
2018-08-20T09:04:26.543Z,4.15
2018-08-20T09:06:55.232Z,4.22
2018-08-20T09:09:23.832Z,4.20
2018-08-20T09:11:52.441Z,4.20
2018-08-20T09:14:21.011Z,4.30
2018-08-20T09:16:49.573Z,4.17
2018-08-20T09:19:18.063Z,3.80
2018-08-20T09:21:46.606Z,4.50
2018-08-20T09:24:15.136Z,4.15
2018-08-20T09:26:43.658Z,4.22
2018-08-20T09:29:12.235Z,4.20
2018-08-20T09:31:40.708Z,4.00
2018-08-20T09:34:09.250Z,4.53
2018-08-20T09:36:37.738Z,3.87
2018-08-20T09:39:06.923Z,4.08
2018-08-20T09:41:35.399Z,3.42
2018-08-20T09:44:03.976Z,3.52
2018-08-20T09:46:32.707Z,3.70
2018-08-20T09:49:01.219Z,3.50
2018-08-20T09:51:29.904Z,3.67
2018-08-20T09:53:58.424Z,3.95
2018-08-20T09:56:26.902Z,3.70
2018-08-20T09:58:55.438Z,3.87
2018-08-20T10:01:23.910Z,4.12
2018-08-20T10:03:52.402Z,3.70
2018-08-20T10:06:20.897Z,3.52
2018-08-20T10:08:50.288Z,4.08
2018-08-20T10:11:18.802Z,3.40
2018-08-20T10:13:47.309Z,3.87
2018-08-20T10:16:15.759Z,3.72
2018-08-20T10:18:44.255Z,3.90
2018-08-20T10:21:12.766Z,3.92
2018-08-20T10:23:41.244Z,3.80
2018-08-20T10:26:09.734Z,4.05
2018-08-20T10:28:38.233Z,4.20
2018-08-20T10:31:06.759Z,4.10
2018-08-20T10:33:35.235Z,3.90
2018-08-20T10:36:03.751Z,3.80
2018-08-20T10:38:32.254Z,4.20
2018-08-20T10:41:00.778Z,3.92
2018-08-20T10:43:29.233Z,3.95
2018-08-20T10:46:03.095Z,4.50
2018-08-20T10:48:31.550Z,4.05
2018-08-20T10:51:00.051Z,3.95
2018-08-20T10:53:28.538Z,3.80
2018-08-20T10:55:57.054Z,4.40
2018-08-20T10:58:25.545Z,4.70
2018-08-20T11:00:54.071Z,4.75
2018-08-20T11:03:22.583Z,4.55
2018-08-20T11:08:44.363Z,4.05
2018-08-20T11:11:12.901Z,4.00
2018-08-20T11:13:41.407Z,5.62
2018-08-20T11:16:10.232Z,4.03
2018-08-20T11:18:38.739Z,4.20
2018-08-20T11:21:07.367Z,4.58
2018-08-20T11:23:35.898Z,4.65
2018-08-20T11:26:04.495Z,4.60
2018-08-20T11:28:33.026Z,4.20
2018-08-20T11:31:01.648Z,4.17
2018-08-20T11:33:30.395Z,4.40
2018-08-20T11:35:59.014Z,4.47
2018-08-20T11:38:27.775Z,4.55
2018-08-20T11:40:57.224Z,4.40
2018-08-20T11:43:25.782Z,4.72
2018-08-20T11:45:54.357Z,4.45
2018-08-20T11:48:22.857Z,4.62
2018-08-20T11:50:51.402Z,4.45
2018-08-20T11:53:20.004Z,4.42
2018-08-20T11:55:49.201Z,5.05
2018-08-20T11:58:17.722Z,4.92
2018-08-20T12:00:46.226Z,4.80
2018-08-20T12:03:14.747Z,4.85
2018-08-20T12:05:43.275Z,4.97
2018-08-20T12:08:12.118Z,4.80
2018-08-20T12:10:40.796Z,5.10
2018-08-20T12:13:09.275Z,4.70
2018-08-20T12:15:37.798Z,4.92
2018-08-20T12:18:06.358Z,5.00
2018-08-20T12:20:34.869Z,4.55
2018-08-20T12:23:03.384Z,4.87
2018-08-20T12:25:31.908Z,4.72
2018-08-20T12:28:00.406Z,4.87
2018-08-20T12:30:28.909Z,5.03
2018-08-20T12:32:57.430Z,4.85
2018-08-20T12:35:25.989Z,5.20
2018-08-20T12:37:54.532Z,4.78
2018-08-20T12:40:23.160Z,4.97
2018-08-20T12:42:51.633Z,4.70
2018-08-20T12:45:20.148Z,4.70
2018-08-20T12:47:48.678Z,4.70
2018-08-20T12:50:17.169Z,5.08
2018-08-20T12:52:45.747Z,5.10
2018-08-20T12:55:14.220Z,4.92
2018-08-20T12:57:42.757Z,4.97
2018-08-20T13:00:11.246Z,4.75
2018-08-20T13:02:39.810Z,4.58
2018-08-20T13:05:08.333Z,4.67
2018-08-20T13:07:36.879Z,4.40
2018-08-20T13:10:05.944Z,4.70
2018-08-20T13:12:34.489Z,4.70
2018-08-20T13:15:03.004Z,5.15
2018-08-20T13:17:31.895Z,4.60
2018-08-20T13:20:00.447Z,4.87
2018-08-20T13:22:28.958Z,4.58
2018-08-20T13:24:57.422Z,4.45
2018-08-20T13:27:26.029Z,4.55
2018-08-20T13:29:54.545Z,4.33
2018-08-20T13:32:23.103Z,4.25
2018-08-20T13:34:51.620Z,4.80
2018-08-20T13:37:20.292Z,4.28
2018-08-20T13:39:48.745Z,4.33
2018-08-20T13:42:17.345Z,4.85
2018-08-20T13:44:45.877Z,4.40
2018-08-20T13:47:14.693Z,4.62
2018-08-20T13:49:43.792Z,4.50
2018-08-20T13:52:12.337Z,4.50
2018-08-20T13:54:40.889Z,4.45
2018-08-20T13:57:09.424Z,4.50
2018-08-20T13:59:37.983Z,4.58
2018-08-20T14:02:06.689Z,4.35
2018-08-20T14:04:35.253Z,4.60
2018-08-20T14:07:04.178Z,4.80
2018-08-20T14:09:33.386Z,4.60
2018-08-20T14:12:02.357Z,4.42
2018-08-20T14:14:30.932Z,4.78
2018-08-20T14:16:59.894Z,4.40
2018-08-20T14:19:29.407Z,4.40
2018-08-20T14:22:00.324Z,4.40
2018-08-20T14:24:28.991Z,4.60
2018-08-20T14:26:59.767Z,4.12
2018-08-20T14:29:28.295Z,4.50
2018-08-20T14:31:56.922Z,4.30
2018-08-20T14:34:25.453Z,4.00
2018-08-20T14:36:54.152Z,4.35
2018-08-20T14:39:22.807Z,4.35
2018-08-20T14:41:51.381Z,4.12
2018-08-20T14:44:19.934Z,4.35
2018-08-20T14:46:48.503Z,4.92
2018-08-20T14:49:17.078Z,4.97
2018-08-20T14:51:45.617Z,4.65
2018-08-20T14:54:14.231Z,4.83
2018-08-20T14:56:42.814Z,4.60
2018-08-20T14:59:11.354Z,4.40
2018-08-20T15:01:39.890Z,4.75
2018-08-20T15:04:08.573Z,4.90
2018-08-20T15:06:51.158Z,4.25
2018-08-20T15:09:19.871Z,4.55
2018-08-20T15:13:17.425Z,4.80
2018-08-20T15:15:47.714Z,4.85
2018-08-20T15:18:16.140Z,4.17
2018-08-20T15:20:47.509Z,4.28
2018-08-20T15:23:18.342Z,4.50
2018-08-20T15:25:50.838Z,4.33
2018-08-20T15:28:19.419Z,4.45
2018-08-20T15:30:47.962Z,4.60
2018-08-20T15:33:16.486Z,4.50
2018-08-20T15:35:44.990Z,4.60
2018-08-20T15:38:13.519Z,4.40
2018-08-20T15:40:42.017Z,4.22
2018-08-20T15:43:10.582Z,4.17
2018-08-20T15:45:39.561Z,4.40
2018-08-20T15:48:08.230Z,4.50
2018-08-20T15:50:36.726Z,4.40
2018-08-20T15:53:05.323Z,4.00
2018-08-20T15:56:58.164Z,4.25
2018-08-20T15:59:26.677Z,4.05
2018-08-20T16:01:55.166Z,4.10
2018-08-20T16:04:23.698Z,4.50
2018-08-20T16:06:52.184Z,4.58
2018-08-20T16:09:20.712Z,4.53
2018-08-20T16:11:49.209Z,4.55
2018-08-20T16:14:17.745Z,4.12
2018-08-20T16:16:46.226Z,5.03
2018-08-20T16:19:14.751Z,4.87
2018-08-20T16:21:43.269Z,4.70
2018-08-20T16:24:11.803Z,4.78
2018-08-20T16:26:40.379Z,4.60
2018-08-20T16:29:08.903Z,4.80
2018-08-20T16:31:37.462Z,5.08
2018-08-20T16:34:06.073Z,4.55
2018-08-20T16:36:34.669Z,5.15
2018-08-20T16:39:03.450Z,5.05
2018-08-20T16:41:31.931Z,4.85
2018-08-20T16:44:00.515Z,5.17
2018-08-20T16:46:29.055Z,5.40
2018-08-20T16:48:57.638Z,5.50
2018-08-20T16:51:26.170Z,5.78
2018-08-20T16:53:54.705Z,5.85
2018-08-20T16:56:23.242Z,5.92
2018-08-20T16:58:51.790Z,5.70
2018-08-20T17:01:20.448Z,6.12
2018-08-20T17:03:48.989Z,6.65
2018-08-20T17:06:17.500Z,6.37
2018-08-20T17:08:46.126Z,5.53
2018-08-20T17:11:15.020Z,6.22
2018-08-20T17:13:43.562Z,5.83
2018-08-20T17:16:14.338Z,6.42
2018-08-20T17:18:43.026Z,5.95
2018-08-20T17:21:11.599Z,6.55
2018-08-20T17:23:40.103Z,6.62
2018-08-20T17:26:08.855Z,6.42
2018-08-20T17:28:37.373Z,6.45
2018-08-20T17:31:08.248Z,6.10
2018-08-20T17:33:36.848Z,6.58
2018-08-20T17:36:07.744Z,7.00
2018-08-20T17:38:36.246Z,6.72
2018-08-20T17:41:05.030Z,6.80
2018-08-20T17:43:33.535Z,6.75
2018-08-20T17:46:02.079Z,6.85
2018-08-20T17:48:31.656Z,6.25
2018-08-20T17:51:00.594Z,6.67
2018-08-20T17:53:40.600Z,6.60
2018-08-20T17:56:09.145Z,6.20
2018-08-20T17:58:37.640Z,7.60
2018-08-20T18:01:06.274Z,6.17
2018-08-20T18:03:35.975Z,6.62
2018-08-20T18:06:06.751Z,6.42
2018-08-20T18:08:35.593Z,6.42
2018-08-20T18:11:04.711Z,6.67
2018-08-20T18:13:47.521Z,6.35
2018-08-20T18:16:17.146Z,7.22
2018-08-20T18:18:47.866Z,8.75
2018-08-20T18:21:16.461Z,6.92
2018-08-20T18:23:45.017Z,6.67
2018-08-20T18:26:13.579Z,7.55
2018-08-20T18:28:47.310Z,6.47
2018-08-20T18:31:23.040Z,6.62
2018-08-20T18:33:51.594Z,6.72
2018-08-20T18:36:26.600Z,6.87
2018-08-20T18:38:56.606Z,6.23
2018-08-20T18:42:05.669Z,6.47
2018-08-20T18:44:34.178Z,7.53
2018-08-20T18:47:02.844Z,8.33
2018-08-20T18:49:31.426Z,7.43
2018-08-20T18:52:06.609Z,6.90
2018-08-20T18:54:39.349Z,6.50
2018-08-20T18:57:07.924Z,7.47
2018-08-20T18:59:37.560Z,7.60
2018-08-20T19:02:07.251Z,6.47
2018-08-20T19:04:41.732Z,7.30
2018-08-20T19:07:11.794Z,7.10
2018-08-20T19:09:41.227Z,6.70
2018-08-20T19:12:10.321Z,6.20
2018-08-20T19:14:38.822Z,6.63
2018-08-20T19:17:13.652Z,7.03
2018-08-20T19:19:49.309Z,8.73
2018-08-20T19:22:23.090Z,8.27
2018-08-20T19:24:51.613Z,7.10
2018-08-20T19:27:20.214Z,6.73
2018-08-20T19:29:48.714Z,6.83
2018-08-20T19:32:17.274Z,6.40
2018-08-20T19:34:45.850Z,6.77
2018-08-20T19:37:14.339Z,6.60
2018-08-20T19:39:42.846Z,6.47
2018-08-20T19:42:14.987Z,6.50
2018-08-20T19:44:43.490Z,7.23
2018-08-20T19:47:12.022Z,6.70
2018-08-20T19:49:40.914Z,8.20
2018-08-20T19:52:09.538Z,7.77
2018-08-20T19:54:38.074Z,6.63
2018-08-20T19:57:06.593Z,7.30
2018-08-20T19:59:38.705Z,7.00
2018-08-20T20:02:11.503Z,6.57
2018-08-20T20:04:40.029Z,6.80
2018-08-20T20:07:08.569Z,6.77
2018-08-20T20:09:38.422Z,7.20
2018-08-20T20:12:07.050Z,6.83
2018-08-20T20:14:40.975Z,7.17
2018-08-20T20:17:10.064Z,6.83
2018-08-20T20:19:38.950Z,6.93
2018-08-20T20:22:12.610Z,7.50
2018-08-20T20:24:41.426Z,7.30
2018-08-20T20:27:10.060Z,8.17
2018-08-20T20:29:38.936Z,7.37
2018-08-20T20:32:07.586Z,7.07
2018-08-20T20:34:36.337Z,7.40
2018-08-20T20:37:05.062Z,8.10
2018-08-20T20:39:34.615Z,9.70
2018-08-20T20:42:03.190Z,7.37
2018-08-20T20:44:31.806Z,7.37
2018-08-20T20:47:00.470Z,7.00
2018-08-20T20:49:29.017Z,7.40
2018-08-20T20:51:57.558Z,7.50
2018-08-20T20:54:26.183Z,8.60
2018-08-20T20:56:55.110Z,7.63
2018-08-20T20:59:23.734Z,6.97
2018-08-20T21:01:52.333Z,7.23
2018-08-20T21:04:20.957Z,7.17
2018-08-20T21:06:49.776Z,7.03
2018-08-20T21:09:18.354Z,7.10
2018-08-20T21:11:46.986Z,7.30
2018-08-20T21:14:15.648Z,7.50
2018-08-20T21:16:44.198Z,7.50
2018-08-20T21:19:12.789Z,8.53
2018-08-20T21:21:41.590Z,7.27
2018-08-20T21:24:10.553Z,7.63
2018-08-20T21:26:39.133Z,7.37
2018-08-20T21:29:07.774Z,7.40
2018-08-20T21:31:42.502Z,7.83
2018-08-20T21:34:11.183Z,6.83
2018-08-20T21:36:39.869Z,6.77
2018-08-20T21:39:09.989Z,8.00
2018-08-20T21:41:39.383Z,7.30
2018-08-20T21:44:08.070Z,7.47
2018-08-20T21:46:36.742Z,7.20
2018-08-20T21:49:05.705Z,6.93
2018-08-20T21:51:41.557Z,7.47
2018-08-20T21:54:11.455Z,6.90
2018-08-20T21:56:51.174Z,7.10
2018-08-20T21:59:19.808Z,7.63
2018-08-20T22:01:48.393Z,8.00
2018-08-20T22:04:19.722Z,9.13
2018-08-20T22:06:49.507Z,9.87
2018-08-20T22:09:18.174Z,7.43
2018-08-20T22:11:47.089Z,7.53
2018-08-20T22:14:15.706Z,8.07
2018-08-20T22:16:44.245Z,7.20
2018-08-20T22:19:13.205Z,7.40
2018-08-20T22:21:41.781Z,7.20
2018-08-20T22:24:10.576Z,8.47
2018-08-20T22:26:45.803Z,7.20
2018-08-20T22:29:14.445Z,7.37
2018-08-20T22:31:48.649Z,7.33
2018-08-20T22:34:17.247Z,8.33
2018-08-20T22:36:46.766Z,8.30
2018-08-20T22:39:15.341Z,6.83
2018-08-20T22:41:44.119Z,9.30
2018-08-20T22:44:12.682Z,8.40
2018-08-20T22:46:41.258Z,8.57
2018-08-20T22:49:09.847Z,7.97
2018-08-20T22:51:38.370Z,7.60
2018-08-20T22:54:06.967Z,7.17
2018-08-20T22:56:36.230Z,7.20
2018-08-20T22:59:07.393Z,7.63
2018-08-20T23:01:40.822Z,7.20
2018-08-20T23:04:09.602Z,7.70
2018-08-20T23:06:38.291Z,7.77
2018-08-20T23:09:25.566Z,7.83
2018-08-20T23:11:59.668Z,7.67
2018-08-20T23:14:28.243Z,7.93
2018-08-20T23:16:56.910Z,8.27
2018-08-20T23:19:25.866Z,7.67
2018-08-20T23:21:55.013Z,7.57
2018-08-20T23:24:24.101Z,8.00
2018-08-20T23:26:52.905Z,8.03
2018-08-20T23:29:21.490Z,8.17
2018-08-20T23:31:50.118Z,8.57
2018-08-20T23:34:18.738Z,8.73
2018-08-20T23:36:47.329Z,8.80
2018-08-20T23:39:17.390Z,8.17
2018-08-20T23:41:46.791Z,8.80
2018-08-20T23:44:17.073Z,8.20
2018-08-20T23:46:47.470Z,8.73
2018-08-20T23:49:16.058Z,8.37
2018-08-20T23:51:44.719Z,8.70
2018-08-20T23:54:13.713Z,8.27
2018-08-20T23:56:42.344Z,8.07
2018-08-20T23:59:10.913Z,8.47
